createdAt,value
2019-01-08T00:01:12.987Z,20.12
2019-01-08T00:03:41.186Z,20.13
2019-01-08T00:06:09.403Z,20.09
2019-01-08T00:08:37.607Z,20.11
2019-01-08T00:11:05.834Z,20.06
2019-01-08T00:13:34.032Z,20.10
2019-01-08T00:16:02.340Z,20.11
2019-01-08T00:18:30.566Z,20.09
2019-01-08T00:20:58.768Z,20.13
2019-01-08T00:23:26.982Z,20.12
2019-01-08T00:25:55.190Z,20.10
2019-01-08T00:28:23.396Z,20.04
2019-01-08T00:30:51.605Z,20.04
2019-01-08T00:33:19.839Z,20.04
2019-01-08T00:35:48.039Z,20.04
2019-01-08T00:38:16.266Z,20.05
2019-01-08T00:40:44.486Z,20.05
2019-01-08T00:43:12.710Z,20.04
2019-01-08T00:45:40.910Z,20.03
2019-01-08T00:48:09.110Z,20.05
2019-01-08T00:50:37.335Z,20.03
2019-01-08T00:53:05.572Z,20.01
2019-01-08T00:55:33.770Z,20.04
2019-01-08T00:58:01.966Z,20.07
2019-01-08T01:00:30.202Z,20.05
2019-01-08T01:02:58.393Z,20.04
2019-01-08T01:05:26.596Z,20.04
2019-01-08T01:07:54.824Z,20.05
2019-01-08T01:10:23.026Z,20.03
2019-01-08T01:12:51.246Z,20.02
2019-01-08T01:15:19.448Z,20.02
2019-01-08T01:17:47.686Z,20.04
2019-01-08T01:20:15.876Z,20.02
2019-01-08T01:22:44.113Z,19.97
2019-01-08T01:25:12.338Z,20.01
2019-01-08T01:27:40.547Z,19.97
2019-01-08T01:30:08.950Z,19.97
2019-01-08T01:32:37.166Z,19.98
2019-01-08T01:35:05.550Z,19.95
2019-01-08T01:37:33.750Z,19.98
2019-01-08T01:40:01.972Z,20.01
2019-01-08T01:42:30.181Z,20.03
2019-01-08T01:44:58.412Z,20.01
2019-01-08T01:47:26.612Z,20.00
2019-01-08T01:49:54.816Z,19.97
2019-01-08T01:52:23.024Z,19.94
2019-01-08T01:54:51.228Z,19.92
2019-01-08T01:57:19.454Z,19.95
2019-01-08T01:59:47.648Z,19.94
2019-01-08T02:02:15.887Z,19.95
2019-01-08T02:04:44.101Z,19.95
2019-01-08T02:07:12.336Z,19.90
2019-01-08T02:09:40.542Z,19.95
2019-01-08T02:12:08.873Z,19.92
2019-01-08T02:14:37.090Z,19.95
2019-01-08T02:17:05.324Z,19.94
2019-01-08T02:19:33.533Z,19.96
2019-01-08T02:22:01.749Z,19.95
2019-01-08T02:24:29.977Z,19.93
2019-01-08T02:26:58.176Z,19.95
2019-01-08T02:29:26.410Z,19.94
2019-01-08T02:31:54.632Z,19.95
2019-01-08T02:34:22.838Z,19.95
2019-01-08T02:36:51.054Z,19.98
2019-01-08T02:39:19.263Z,19.97
2019-01-08T02:41:47.544Z,19.89
2019-01-08T02:44:15.854Z,19.97
2019-01-08T02:46:44.326Z,19.95
2019-01-08T02:49:12.635Z,19.98
2019-01-08T02:51:40.858Z,20.00
2019-01-08T02:54:09.045Z,19.97
2019-01-08T02:56:37.271Z,19.95
2019-01-08T02:59:05.472Z,19.98
2019-01-08T03:01:33.701Z,19.96
2019-01-08T03:04:01.938Z,19.99
2019-01-08T03:06:30.148Z,19.95
2019-01-08T03:08:58.348Z,19.96
2019-01-08T03:11:26.565Z,19.98
2019-01-08T03:13:54.773Z,19.93
2019-01-08T03:16:23.002Z,19.95
2019-01-08T03:18:51.201Z,19.92
2019-01-08T03:21:19.424Z,19.96
2019-01-08T03:23:47.623Z,19.94
2019-01-08T03:26:15.853Z,19.91
2019-01-08T03:28:44.077Z,19.95
2019-01-08T03:31:12.287Z,19.96
2019-01-08T03:33:40.517Z,19.96
2019-01-08T03:36:08.803Z,19.96
2019-01-08T03:38:37.007Z,19.97
2019-01-08T03:41:05.221Z,19.97
2019-01-08T03:43:33.441Z,19.98
2019-01-08T03:46:01.645Z,19.91
2019-01-08T03:48:29.869Z,19.97
2019-01-08T03:50:58.117Z,19.96
2019-01-08T03:53:26.337Z,19.96
2019-01-08T03:55:54.565Z,19.97
2019-01-08T03:58:22.781Z,19.96
2019-01-08T04:00:51.003Z,19.95
2019-01-08T04:03:19.199Z,19.95
2019-01-08T04:05:47.433Z,19.96
2019-01-08T04:08:15.648Z,19.96
2019-01-08T04:10:43.842Z,19.93
2019-01-08T04:13:12.071Z,19.97
2019-01-08T04:15:40.273Z,19.95
2019-01-08T04:18:08.489Z,19.96
2019-01-08T04:20:36.716Z,19.99
2019-01-08T04:23:04.920Z,19.97
2019-01-08T04:25:33.151Z,19.97
2019-01-08T04:28:01.353Z,19.95
2019-01-08T04:30:29.569Z,19.95
2019-01-08T04:32:57.761Z,19.95
2019-01-08T04:35:25.987Z,19.95
2019-01-08T04:37:54.203Z,19.96
2019-01-08T04:40:22.450Z,19.94
2019-01-08T04:42:50.636Z,19.96
2019-01-08T04:45:18.843Z,19.97
2019-01-08T04:47:47.068Z,19.96
2019-01-08T04:50:15.282Z,19.97
2019-01-08T04:52:43.577Z,19.96
2019-01-08T04:55:11.811Z,19.95
2019-01-08T04:57:40.008Z,19.96
2019-01-08T05:00:10.075Z,19.94
2019-01-08T05:02:38.275Z,19.97
2019-01-08T05:05:06.501Z,19.98
2019-01-08T05:07:34.690Z,19.94
2019-01-08T05:10:02.912Z,19.95
2019-01-08T05:12:31.153Z,19.94
2019-01-08T05:14:59.366Z,19.96
2019-01-08T05:17:27.594Z,19.96
2019-01-08T05:19:55.815Z,19.96
2019-01-08T05:22:24.010Z,19.99
2019-01-08T05:24:52.216Z,19.98
2019-01-08T05:27:20.442Z,19.97
2019-01-08T05:29:48.663Z,19.97
2019-01-08T05:32:16.873Z,19.99
2019-01-08T05:34:45.112Z,19.97
2019-01-08T05:37:13.316Z,19.96
2019-01-08T05:39:41.522Z,20.01
2019-01-08T05:42:09.745Z,20.00
2019-01-08T05:44:37.975Z,19.97
2019-01-08T05:47:06.192Z,19.98
2019-01-08T05:49:34.402Z,19.98
2019-01-08T05:52:02.630Z,19.98
2019-01-08T05:54:30.830Z,19.98
2019-01-08T05:56:59.050Z,19.97
2019-01-08T05:59:27.253Z,19.99
2019-01-08T06:01:55.473Z,20.01
2019-01-08T06:04:23.668Z,20.01
2019-01-08T06:06:51.917Z,20.02
2019-01-08T06:09:20.129Z,20.02
2019-01-08T06:11:48.346Z,20.00
2019-01-08T06:14:16.587Z,20.02
2019-01-08T06:16:44.805Z,19.99
2019-01-08T06:19:13.012Z,20.01
2019-01-08T06:21:41.221Z,20.02
2019-01-08T06:24:09.462Z,20.01
2019-01-08T06:26:37.658Z,20.02
2019-01-08T06:29:05.864Z,20.01
2019-01-08T06:31:34.069Z,19.99
2019-01-08T06:34:02.299Z,20.00
2019-01-08T06:36:30.513Z,19.99
2019-01-08T06:38:58.734Z,20.00
2019-01-08T06:41:26.924Z,20.01
2019-01-08T06:43:55.166Z,20.00
2019-01-08T06:46:23.372Z,20.02
2019-01-08T06:48:51.576Z,20.02
2019-01-08T06:51:19.815Z,20.05
2019-01-08T06:53:48.050Z,20.03
2019-01-08T06:56:16.248Z,20.05
2019-01-08T06:58:44.486Z,20.05
2019-01-08T07:01:12.700Z,20.02
2019-01-08T07:03:40.896Z,20.04
2019-01-08T07:06:09.108Z,20.03
2019-01-08T07:08:37.318Z,20.04
2019-01-08T07:11:05.548Z,20.04
2019-01-08T07:13:33.770Z,20.04
2019-01-08T07:16:01.972Z,20.04
2019-01-08T07:18:30.278Z,20.06
2019-01-08T07:20:58.484Z,20.05
2019-01-08T07:23:26.707Z,20.04
2019-01-08T07:25:54.914Z,20.06
2019-01-08T07:28:23.120Z,20.05
2019-01-08T07:30:51.360Z,20.05
2019-01-08T07:33:19.572Z,20.04
2019-01-08T07:35:47.796Z,20.03
2019-01-08T07:38:16.019Z,20.06
2019-01-08T07:40:44.220Z,20.06
2019-01-08T07:43:12.446Z,20.05
2019-01-08T07:45:40.674Z,20.06
2019-01-08T07:48:08.868Z,20.06
2019-01-08T07:50:37.098Z,20.06
2019-01-08T07:53:05.316Z,20.08
2019-01-08T07:55:33.544Z,20.08
2019-01-08T07:58:01.733Z,20.07
2019-01-08T08:00:29.952Z,20.08
2019-01-08T08:02:58.168Z,20.09
2019-01-08T08:05:26.356Z,20.09
2019-01-08T08:07:54.604Z,20.11
2019-01-08T08:10:22.796Z,20.09
2019-01-08T08:12:51.014Z,20.11
2019-01-08T08:15:19.222Z,20.13
2019-01-08T08:17:47.517Z,20.11
2019-01-08T08:20:15.727Z,20.14
2019-01-08T08:22:43.954Z,20.13
2019-01-08T08:25:12.172Z,20.14
2019-01-08T08:27:40.398Z,20.18
2019-01-08T08:30:09.371Z,20.18
2019-01-08T08:32:37.580Z,20.17
2019-01-08T08:35:08.673Z,20.18
2019-01-08T08:37:35.984Z,20.20
2019-01-08T08:40:05.964Z,20.20
2019-01-08T08:42:34.178Z,20.22
2019-01-08T08:45:02.404Z,20.22
2019-01-08T08:47:30.593Z,20.23
2019-01-08T08:49:58.826Z,20.24
2019-01-08T08:52:27.024Z,20.25
2019-01-08T08:54:55.252Z,20.22
2019-01-08T08:57:23.476Z,20.25
2019-01-08T08:59:51.696Z,20.25
2019-01-08T09:02:19.906Z,20.27
2019-01-08T09:04:48.135Z,20.29
2019-01-08T09:07:16.347Z,20.30
2019-01-08T09:09:44.562Z,20.29
2019-01-08T09:12:12.791Z,20.29
2019-01-08T09:14:41.002Z,20.29
2019-01-08T09:17:09.209Z,20.30
2019-01-08T09:19:37.445Z,20.31
2019-01-08T09:22:05.652Z,20.32
2019-01-08T09:24:33.840Z,20.32
2019-01-08T09:27:02.065Z,20.39
2019-01-08T09:29:31.803Z,20.34
2019-01-08T09:32:00.188Z,20.33
2019-01-08T09:34:28.392Z,20.35
2019-01-08T09:36:56.612Z,20.36
2019-01-08T09:39:24.803Z,20.36
2019-01-08T09:41:53.039Z,20.35
2019-01-08T09:44:21.240Z,20.34
2019-01-08T09:46:49.455Z,20.34
2019-01-08T09:49:17.674Z,20.33
2019-01-08T09:51:45.882Z,20.32
2019-01-08T09:54:14.086Z,20.32
2019-01-08T09:56:42.283Z,20.30
2019-01-08T09:59:10.509Z,20.31
2019-01-08T10:01:38.707Z,20.31
2019-01-08T10:04:06.905Z,20.30
2019-01-08T10:06:35.131Z,20.30
2019-01-08T10:09:05.088Z,20.31
2019-01-08T10:11:33.401Z,20.30
2019-01-08T10:14:01.603Z,20.32
2019-01-08T10:16:29.833Z,20.31
2019-01-08T10:18:58.046Z,20.32
2019-01-08T10:21:26.273Z,20.30
2019-01-08T10:23:54.487Z,20.29
2019-01-08T10:26:22.698Z,20.29
2019-01-08T10:28:50.933Z,20.30
2019-01-08T10:31:19.174Z,20.29
2019-01-08T10:33:47.477Z,20.32
2019-01-08T10:36:15.697Z,20.30
2019-01-08T10:38:43.894Z,20.30
2019-01-08T10:41:12.109Z,20.29
2019-01-08T10:43:40.334Z,20.28
2019-01-08T10:46:08.558Z,20.30
2019-01-08T10:48:36.797Z,20.30
2019-01-08T10:51:05.003Z,20.31
2019-01-08T10:53:33.217Z,20.31
2019-01-08T10:56:01.439Z,20.31
2019-01-08T10:58:29.644Z,20.30
2019-01-08T11:00:57.986Z,20.32
2019-01-08T11:03:26.183Z,20.31
2019-01-08T11:05:54.410Z,20.31
2019-01-08T11:08:22.597Z,20.30
2019-01-08T11:10:50.825Z,20.30
2019-01-08T11:13:19.069Z,20.29
2019-01-08T11:15:47.273Z,20.30
2019-01-08T11:18:15.485Z,20.30
2019-01-08T11:20:43.677Z,20.28
2019-01-08T11:23:11.901Z,20.29
2019-01-08T11:25:40.172Z,20.29
2019-01-08T11:28:08.379Z,20.31
2019-01-08T11:30:36.607Z,20.28
2019-01-08T11:33:04.831Z,20.28
2019-01-08T11:35:33.074Z,20.27
2019-01-08T11:38:01.283Z,20.29
2019-01-08T11:40:29.482Z,20.27
2019-01-08T11:42:57.741Z,20.29
2019-01-08T11:45:25.960Z,20.30
2019-01-08T11:47:54.200Z,20.30
2019-01-08T11:50:22.415Z,20.30
2019-01-08T11:52:50.629Z,20.30
2019-01-08T11:55:18.859Z,20.29
2019-01-08T11:57:47.065Z,20.28
2019-01-08T12:00:16.956Z,20.29
2019-01-08T12:02:47.841Z,20.29
2019-01-08T12:05:15.117Z,20.29
2019-01-08T12:07:43.325Z,20.28
2019-01-08T12:10:11.549Z,20.29
2019-01-08T12:12:39.747Z,20.26
2019-01-08T12:15:08.354Z,20.28
2019-01-08T12:17:36.558Z,20.29
2019-01-08T12:20:08.101Z,20.28
2019-01-08T12:22:40.765Z,20.29
2019-01-08T12:25:06.304Z,20.29
2019-01-08T12:27:34.529Z,20.27
2019-01-08T12:30:02.722Z,20.28
2019-01-08T12:32:30.956Z,20.28
2019-01-08T12:34:59.169Z,20.28
2019-01-08T12:37:27.366Z,20.28
2019-01-08T12:39:55.591Z,20.28
2019-01-08T12:42:23.794Z,20.29
2019-01-08T12:44:52.006Z,20.27
2019-01-08T12:47:20.241Z,20.27
2019-01-08T12:49:48.483Z,20.28
2019-01-08T12:52:16.675Z,20.28
2019-01-08T12:54:44.887Z,20.29
2019-01-08T12:57:13.116Z,20.27
2019-01-08T12:59:41.341Z,20.28
2019-01-08T13:02:14.595Z,20.27
2019-01-08T13:04:39.476Z,20.27
2019-01-08T13:07:07.691Z,20.28
2019-01-08T13:09:35.938Z,20.27
2019-01-08T13:12:04.167Z,20.27
2019-01-08T13:14:32.378Z,20.27
2019-01-08T13:17:00.712Z,20.27
2019-01-08T13:19:28.920Z,20.28
2019-01-08T13:21:57.146Z,20.28
2019-01-08T13:24:25.434Z,20.28
2019-01-08T13:26:53.676Z,20.28
2019-01-08T13:29:21.877Z,20.27
2019-01-08T13:31:50.104Z,20.28
2019-01-08T13:34:18.312Z,20.28
2019-01-08T13:36:46.544Z,20.29
2019-01-08T13:39:14.748Z,20.29
2019-01-08T13:41:42.986Z,20.29
2019-01-08T13:44:11.296Z,20.28
2019-01-08T13:46:39.487Z,20.28
2019-01-08T13:49:07.715Z,20.28
2019-01-08T13:51:35.946Z,20.28
2019-01-08T13:54:04.180Z,20.28
2019-01-08T13:56:32.590Z,20.28
2019-01-08T13:59:00.780Z,20.30
2019-01-08T14:01:28.978Z,20.31
2019-01-08T14:03:57.202Z,20.32
2019-01-08T14:06:25.406Z,20.32
2019-01-08T14:08:53.637Z,20.32
2019-01-08T14:11:21.852Z,20.33
2019-01-08T14:13:50.056Z,20.33
2019-01-08T14:16:18.288Z,20.31
2019-01-08T14:18:46.520Z,20.31
2019-01-08T14:21:14.719Z,20.33
2019-01-08T14:23:42.954Z,20.36
2019-01-08T14:26:11.181Z,20.39
2019-01-08T14:28:39.374Z,20.40
2019-01-08T14:31:07.579Z,20.47
2019-01-08T14:33:35.810Z,20.63
2019-01-08T14:36:04.009Z,20.76
2019-01-08T14:38:32.220Z,20.72
2019-01-08T14:41:00.426Z,20.59
2019-01-08T14:43:28.656Z,20.54
2019-01-08T14:45:56.886Z,20.54
2019-01-08T14:48:25.088Z,20.52
2019-01-08T14:50:53.302Z,20.51
2019-01-08T14:53:21.546Z,20.50
2019-01-08T14:55:49.753Z,20.51
2019-01-08T14:58:17.982Z,20.52
2019-01-08T15:00:46.244Z,20.54
2019-01-08T15:03:14.444Z,20.56
2019-01-08T15:05:42.692Z,20.56
2019-01-08T15:08:10.923Z,20.56
2019-01-08T15:10:39.123Z,20.56
2019-01-08T15:13:07.341Z,20.57
2019-01-08T15:15:35.535Z,20.57
2019-01-08T15:18:03.829Z,20.58
2019-01-08T15:20:32.057Z,20.60
2019-01-08T15:23:00.265Z,20.59
2019-01-08T15:25:28.512Z,20.61
2019-01-08T15:27:56.751Z,20.60
2019-01-08T15:30:24.981Z,20.61
2019-01-08T15:32:58.136Z,20.61
2019-01-08T15:35:23.193Z,20.63
2019-01-08T15:37:51.419Z,20.63
2019-01-08T15:40:19.638Z,20.63
2019-01-08T15:42:47.859Z,20.65
2019-01-08T15:45:16.055Z,20.65
2019-01-08T15:47:44.283Z,20.67
2019-01-08T15:50:12.481Z,20.67
2019-01-08T15:52:40.719Z,20.68
2019-01-08T15:55:08.941Z,20.69
2019-01-08T15:57:37.229Z,20.70
2019-01-08T16:00:08.717Z,20.71
2019-01-08T16:02:36.944Z,20.71
2019-01-08T16:05:07.292Z,20.74
2019-01-08T16:07:35.507Z,20.73
2019-01-08T16:10:04.166Z,20.78
2019-01-08T16:12:32.397Z,20.78
2019-01-08T16:15:00.605Z,20.78
2019-01-08T16:17:28.829Z,20.79
2019-01-08T16:19:57.043Z,20.80
2019-01-08T16:22:25.255Z,20.85
2019-01-08T16:24:53.476Z,20.86
2019-01-08T16:27:21.683Z,20.86
2019-01-08T16:29:51.547Z,20.88
2019-01-08T16:32:19.813Z,20.87
2019-01-08T16:34:48.035Z,20.88
2019-01-08T16:37:16.255Z,20.93
2019-01-08T16:39:44.485Z,20.93
2019-01-08T16:42:12.691Z,20.97
2019-01-08T16:44:40.903Z,20.96
2019-01-08T16:47:09.141Z,21.02
2019-01-08T16:49:37.376Z,21.04
2019-01-08T16:52:05.579Z,21.06
2019-01-08T16:54:33.160Z,21.04
2019-01-08T16:57:00.693Z,21.28
2019-01-08T16:59:28.233Z,21.20
2019-01-08T17:01:55.725Z,21.19
2019-01-08T17:04:23.283Z,21.25
2019-01-08T17:06:50.788Z,21.23
2019-01-08T17:09:18.322Z,21.31
2019-01-08T17:11:45.849Z,21.38
2019-01-08T17:14:13.375Z,21.38
2019-01-08T17:16:40.985Z,21.44
2019-01-08T17:19:08.467Z,21.43
2019-01-08T17:21:36.007Z,21.57
2019-01-08T17:24:03.557Z,21.49
2019-01-08T17:26:31.159Z,21.60
2019-01-08T17:28:58.687Z,21.56
2019-01-08T17:31:26.203Z,21.53
2019-01-08T17:33:53.742Z,21.65
2019-01-08T17:36:21.237Z,21.86
2019-01-08T17:38:48.767Z,21.97
2019-01-08T17:41:16.328Z,22.06
2019-01-08T17:43:43.857Z,22.38
2019-01-08T17:46:11.369Z,22.48
2019-01-08T17:48:38.891Z,22.49
2019-01-08T17:51:06.414Z,22.39
2019-01-08T17:53:33.944Z,22.26
2019-01-08T17:56:01.488Z,22.17
2019-01-08T17:58:39.081Z,22.13
2019-01-08T18:01:08.427Z,22.06
2019-01-08T18:03:42.501Z,22.06
2019-01-08T18:06:05.200Z,22.05
2019-01-08T18:08:32.729Z,22.10
2019-01-08T18:11:00.247Z,22.08
2019-01-08T18:13:27.792Z,22.05
2019-01-08T18:15:55.335Z,22.04
2019-01-08T18:18:24.198Z,22.02
2019-01-08T18:20:51.833Z,22.04
2019-01-08T18:23:19.350Z,22.05
2019-01-08T18:25:46.884Z,22.01
2019-01-08T18:28:14.416Z,22.05
2019-01-08T18:30:41.963Z,22.08
2019-01-08T18:33:09.480Z,22.05
2019-01-08T18:35:37.002Z,22.06
2019-01-08T18:38:04.548Z,22.06
2019-01-08T18:40:32.104Z,22.07
2019-01-08T18:42:59.617Z,22.06
2019-01-08T18:45:27.117Z,22.06
2019-01-08T18:47:54.703Z,22.05
2019-01-08T18:50:22.220Z,22.04
2019-01-08T18:52:49.750Z,22.11
2019-01-08T18:55:17.264Z,22.13
2019-01-08T18:57:44.783Z,22.14
2019-01-08T19:00:12.320Z,22.14
2019-01-08T19:02:39.850Z,22.14
2019-01-08T19:05:07.372Z,22.16
2019-01-08T19:07:34.952Z,22.21
2019-01-08T19:10:06.896Z,22.19
2019-01-08T19:12:34.398Z,22.23
2019-01-08T19:15:01.926Z,22.25
2019-01-08T19:17:29.437Z,22.29
2019-01-08T19:19:56.976Z,22.36
2019-01-08T19:22:24.509Z,22.35
2019-01-08T19:24:52.013Z,22.30
2019-01-08T19:27:19.549Z,22.20
2019-01-08T19:29:47.067Z,22.20
2019-01-08T19:32:14.593Z,22.08
2019-01-08T19:34:42.109Z,22.22
2019-01-08T19:37:09.646Z,22.30
2019-01-08T19:39:37.158Z,22.30
2019-01-08T19:42:04.699Z,22.26
2019-01-08T19:44:32.288Z,22.31
2019-01-08T19:46:59.825Z,22.29
2019-01-08T19:49:27.359Z,22.26
2019-01-08T19:51:54.896Z,22.23
2019-01-08T19:54:22.406Z,22.19
2019-01-08T19:56:49.937Z,22.16
2019-01-08T19:59:17.452Z,22.10
2019-01-08T20:01:44.973Z,22.07
2019-01-08T20:04:17.764Z,22.02
2019-01-08T20:06:41.732Z,22.02
2019-01-08T20:09:09.258Z,21.91
2019-01-08T20:11:36.763Z,21.85
2019-01-08T20:14:04.282Z,21.83
2019-01-08T20:16:31.800Z,21.82
2019-01-08T20:18:59.326Z,21.81
2019-01-08T20:21:26.868Z,21.78
2019-01-08T20:23:54.443Z,21.74
2019-01-08T20:26:22.032Z,21.77
2019-01-08T20:28:49.547Z,21.80
2019-01-08T20:31:17.068Z,21.81
2019-01-08T20:33:44.589Z,21.80
2019-01-08T20:36:12.104Z,21.79
2019-01-08T20:38:39.634Z,21.79
2019-01-08T20:41:07.137Z,21.79
2019-01-08T20:43:34.668Z,21.77
2019-01-08T20:46:02.158Z,21.77
2019-01-08T20:48:29.680Z,21.77
2019-01-08T20:50:57.179Z,21.76
2019-01-08T20:53:24.732Z,21.76
2019-01-08T20:55:52.258Z,21.75
2019-01-08T20:58:27.552Z,21.74
2019-01-08T21:00:49.055Z,21.75
2019-01-08T21:03:16.559Z,21.74
2019-01-08T21:05:44.065Z,21.73
2019-01-08T21:08:11.636Z,21.67
2019-01-08T21:10:39.203Z,21.69
2019-01-08T21:13:06.714Z,21.69
2019-01-08T21:15:34.226Z,21.68
2019-01-08T21:18:01.748Z,21.62
2019-01-08T21:20:29.291Z,21.58
2019-01-08T21:22:56.822Z,21.57
2019-01-08T21:25:24.370Z,21.58
2019-01-08T21:27:51.895Z,21.56
2019-01-08T21:30:19.391Z,21.56
2019-01-08T21:32:46.922Z,21.53
2019-01-08T21:35:14.444Z,21.52
2019-01-08T21:37:41.960Z,21.52
2019-01-08T21:40:09.486Z,21.52
2019-01-08T21:42:36.988Z,21.51
2019-01-08T21:45:04.514Z,21.49
2019-01-08T21:47:32.008Z,21.47
2019-01-08T21:49:59.533Z,21.48
2019-01-08T21:52:27.734Z,21.46
2019-01-08T21:54:55.239Z,21.45
2019-01-08T21:57:22.750Z,21.44
2019-01-08T21:59:50.272Z,21.43
2019-01-08T22:02:17.792Z,21.41
2019-01-08T22:04:53.044Z,21.38
2019-01-08T22:07:14.571Z,21.36
2019-01-08T22:09:42.124Z,21.36
2019-01-08T22:12:09.658Z,21.36
2019-01-08T22:14:37.234Z,21.34
2019-01-08T22:17:04.740Z,21.31
2019-01-08T22:19:32.280Z,21.30
2019-01-08T22:21:59.778Z,21.30
2019-01-08T22:24:27.329Z,21.29
2019-01-08T22:26:54.828Z,21.29
2019-01-08T22:29:22.349Z,21.29
2019-01-08T22:31:49.873Z,21.27
2019-01-08T22:34:17.374Z,21.27
2019-01-08T22:36:44.900Z,21.22
2019-01-08T22:39:12.402Z,21.21
2019-01-08T22:41:39.948Z,21.19
2019-01-08T22:44:07.486Z,21.22
2019-01-08T22:46:34.996Z,21.20
2019-01-08T22:49:02.517Z,21.19
2019-01-08T22:51:30.045Z,21.21
2019-01-08T22:53:57.574Z,21.17
2019-01-08T22:56:25.086Z,21.16
2019-01-08T22:58:52.607Z,21.16
2019-01-08T23:01:21.765Z,21.13
2019-01-08T23:03:49.274Z,21.13
2019-01-08T23:06:16.866Z,21.14
2019-01-08T23:08:44.402Z,21.11
2019-01-08T23:11:11.984Z,21.09
2019-01-08T23:13:39.513Z,21.10
2019-01-08T23:16:07.052Z,21.09
2019-01-08T23:18:34.585Z,21.07
2019-01-08T23:21:02.096Z,21.07
2019-01-08T23:23:29.632Z,21.02
2019-01-08T23:25:57.151Z,21.05
2019-01-08T23:28:24.685Z,21.06
2019-01-08T23:30:52.217Z,21.04
2019-01-08T23:33:19.721Z,21.04
2019-01-08T23:35:47.227Z,21.03
2019-01-08T23:38:14.755Z,21.01
2019-01-08T23:40:42.287Z,21.01
2019-01-08T23:43:09.815Z,21.01
2019-01-08T23:45:37.347Z,21.02
2019-01-08T23:48:04.883Z,21.03
2019-01-08T23:50:32.463Z,20.99
2019-01-08T23:53:01.657Z,21.02
2019-01-08T23:55:29.989Z,20.99
2019-01-08T23:57:57.478Z,21.01
